sensor_id;sensor_type;location;lat;lon;timestamp;temperature;humidity
983;DHT22;480;48.124;11.578;2023-05-07T00:01:39;16.00;99.90
983;DHT22;480;48.124;11.578;2023-05-07T00:04:06;16.10;99.90
983;DHT22;480;48.124;11.578;2023-05-07T00:06:34;16.10;99.90
983;DHT22;480;48.124;11.578;2023-05-07T00:09:01;16.00;99.90
983;DHT22;480;48.124;11.578;2023-05-07T00:11:28;15.90;99.90
983;DHT22;480;48.124;11.578;2023-05-07T00:13:55;15.90;99.90
983;DHT22;480;48.124;11.578;2023-05-07T00:16:24;15.90;99.90
983;DHT22;480;48.124;11.578;2023-05-07T00:18:51;15.90;99.90
983;DHT22;480;48.124;11.578;2023-05-07T00:21:18;15.90;99.90
983;DHT22;480;48.124;11.578;2023-05-07T00:23:47;15.90;99.90
983;DHT22;480;48.124;11.578;2023-05-07T00:26:14;15.80;99.90
983;DHT22;480;48.124;11.578;2023-05-07T00:28:41;15.70;99.90
983;DHT22;480;48.124;11.578;2023-05-07T00:31:08;15.80;99.90
983;DHT22;480;48.124;11.578;2023-05-07T00:33:37;15.80;99.90
983;DHT22;480;48.124;11.578;2023-05-07T00:36:05;15.80;99.90
983;DHT22;480;48.124;11.578;2023-05-07T00:38:32;15.80;99.90
983;DHT22;480;48.124;11.578;2023-05-07T00:40:59;15.80;99.90
983;DHT22;480;48.124;11.578;2023-05-07T00:43:26;15.80;99.90
983;DHT22;480;48.124;11.578;2023-05-07T00:45:53;15.80;99.90
983;DHT22;480;48.124;11.578;2023-05-07T00:48:21;15.70;99.90
983;DHT22;480;48.124;11.578;2023-05-07T00:50:51;15.40;99.90
983;DHT22;480;48.124;11.578;2023-05-07T00:53:18;15.40;99.90
983;DHT22;480;48.124;11.578;2023-05-07T00:55:46;15.50;99.90
983;DHT22;480;48.124;11.578;2023-05-07T00:58:13;15.60;99.90
983;DHT22;480;48.124;11.578;2023-05-07T01:00:40;15.60;99.90
983;DHT22;480;48.124;11.578;2023-05-07T01:03:07;15.60;99.90
983;DHT22;480;48.124;11.578;2023-05-07T01:05:35;15.20;99.90
983;DHT22;480;48.124;11.578;2023-05-07T01:08:04;15.00;99.90
983;DHT22;480;48.124;11.578;2023-05-07T01:10:31;15.10;99.90
983;DHT22;480;48.124;11.578;2023-05-07T01:12:59;14.70;99.90
983;DHT22;480;48.124;11.578;2023-05-07T01:15:26;14.50;99.90
983;DHT22;480;48.124;11.578;2023-05-07T01:17:53;14.30;99.90
983;DHT22;480;48.124;11.578;2023-05-07T01:20:20;14.10;99.90
983;DHT22;480;48.124;11.578;2023-05-07T01:22:49;13.80;99.90
983;DHT22;480;48.124;11.578;2023-05-07T01:25:17;13.70;99.90
983;DHT22;480;48.124;11.578;2023-05-07T01:27:45;13.60;99.90
983;DHT22;480;48.124;11.578;2023-05-07T01:30:12;13.60;99.90
983;DHT22;480;48.124;11.578;2023-05-07T01:32:43;13.50;99.90
983;DHT22;480;48.124;11.578;2023-05-07T01:35:13;13.40;99.90
983;DHT22;480;48.124;11.578;2023-05-07T01:37:42;13.40;99.90
983;DHT22;480;48.124;11.578;2023-05-07T01:40:11;13.50;99.90
983;DHT22;480;48.124;11.578;2023-05-07T01:42:38;13.60;99.90
983;DHT22;480;48.124;11.578;2023-05-07T01:45:07;13.60;99.90
983;DHT22;480;48.124;11.578;2023-05-07T01:47:34;13.70;99.90
983;DHT22;480;48.124;11.578;2023-05-07T01:50:03;14.00;99.90
983;DHT22;480;48.124;11.578;2023-05-07T01:52:31;14.20;99.90
983;DHT22;480;48.124;11.578;2023-05-07T01:54:58;14.20;99.90
983;DHT22;480;48.124;11.578;2023-05-07T01:57:26;14.00;99.90
983;DHT22;480;48.124;11.578;2023-05-07T01:59:53;13.90;99.90
983;DHT22;480;48.124;11.578;2023-05-07T02:02:20;13.80;99.90
983;DHT22;480;48.124;11.578;2023-05-07T02:04:47;13.60;99.90
983;DHT22;480;48.124;11.578;2023-05-07T02:07:14;13.60;99.90
983;DHT22;480;48.124;11.578;2023-05-07T02:09:41;13.70;99.90
983;DHT22;480;48.124;11.578;2023-05-07T02:12:08;13.80;99.90
983;DHT22;480;48.124;11.578;2023-05-07T02:14:36;14.00;99.90
983;DHT22;480;48.124;11.578;2023-05-07T02:17:03;14.10;99.90
983;DHT22;480;48.124;11.578;2023-05-07T02:19:30;14.10;99.90
983;DHT22;480;48.124;11.578;2023-05-07T02:21:57;14.10;99.90
983;DHT22;480;48.124;11.578;2023-05-07T02:24:24;14.20;99.90
983;DHT22;480;48.124;11.578;2023-05-07T02:26:51;14.10;99.90
983;DHT22;480;48.124;11.578;2023-05-07T02:29:18;14.20;99.90
983;DHT22;480;48.124;11.578;2023-05-07T02:31:46;14.40;99.90
983;DHT22;480;48.124;11.578;2023-05-07T02:34:16;14.10;99.90
983;DHT22;480;48.124;11.578;2023-05-07T02:36:43;13.80;99.90
983;DHT22;480;48.124;11.578;2023-05-07T02:39:11;13.70;99.90
983;DHT22;480;48.124;11.578;2023-05-07T02:41:38;13.40;99.90
983;DHT22;480;48.124;11.578;2023-05-07T02:44:05;13.50;99.90
983;DHT22;480;48.124;11.578;2023-05-07T02:46:32;13.30;99.90
983;DHT22;480;48.124;11.578;2023-05-07T02:49:00;13.20;99.90
983;DHT22;480;48.124;11.578;2023-05-07T02:51:27;13.20;99.90
983;DHT22;480;48.124;11.578;2023-05-07T02:53:54;13.40;99.90
983;DHT22;480;48.124;11.578;2023-05-07T02:56:21;13.60;99.90
983;DHT22;480;48.124;11.578;2023-05-07T02:58:48;13.80;99.90
983;DHT22;480;48.124;11.578;2023-05-07T03:01:15;13.90;99.90
983;DHT22;480;48.124;11.578;2023-05-07T03:03:42;14.10;99.90
983;DHT22;480;48.124;11.578;2023-05-07T03:06:10;14.10;99.90
983;DHT22;480;48.124;11.578;2023-05-07T03:08:37;14.10;99.90
983;DHT22;480;48.124;11.578;2023-05-07T03:11:04;14.20;99.90
983;DHT22;480;48.124;11.578;2023-05-07T03:13:31;14.20;99.90
983;DHT22;480;48.124;11.578;2023-05-07T03:15:58;14.30;99.90
983;DHT22;480;48.124;11.578;2023-05-07T03:18:25;14.30;99.90
983;DHT22;480;48.124;11.578;2023-05-07T03:20:52;14.20;99.90
983;DHT22;480;48.124;11.578;2023-05-07T03:23:20;14.10;99.90
983;DHT22;480;48.124;11.578;2023-05-07T03:25:47;14.20;99.90
983;DHT22;480;48.124;11.578;2023-05-07T03:28:15;14.30;99.90
983;DHT22;480;48.124;11.578;2023-05-07T03:30:42;14.40;99.90
983;DHT22;480;48.124;11.578;2023-05-07T03:33:09;14.40;99.90
983;DHT22;480;48.124;11.578;2023-05-07T03:35:36;14.50;99.90
983;DHT22;480;48.124;11.578;2023-05-07T03:38:03;14.50;99.90
983;DHT22;480;48.124;11.578;2023-05-07T03:40:31;14.30;99.90
983;DHT22;480;48.124;11.578;2023-05-07T03:42:59;13.80;99.90
983;DHT22;480;48.124;11.578;2023-05-07T03:45:26;13.60;99.90
983;DHT22;480;48.124;11.578;2023-05-07T03:47:53;13.70;99.90
983;DHT22;480;48.124;11.578;2023-05-07T03:50:20;13.80;99.90
983;DHT22;480;48.124;11.578;2023-05-07T03:52:47;13.90;99.90
983;DHT22;480;48.124;11.578;2023-05-07T03:55:14;14.00;99.90
983;DHT22;480;48.124;11.578;2023-05-07T03:57:43;14.10;99.90
983;DHT22;480;48.124;11.578;2023-05-07T04:00:11;14.20;99.90
983;DHT22;480;48.124;11.578;2023-05-07T04:02:38;14.30;99.90
983;DHT22;480;48.124;11.578;2023-05-07T04:05:05;14.30;99.90
983;DHT22;480;48.124;11.578;2023-05-07T04:07:32;14.20;99.90
983;DHT22;480;48.124;11.578;2023-05-07T04:09:59;14.30;99.90
983;DHT22;480;48.124;11.578;2023-05-07T04:12:26;14.30;99.90
983;DHT22;480;48.124;11.578;2023-05-07T04:14:55;14.40;99.90
983;DHT22;480;48.124;11.578;2023-05-07T04:17:21;14.40;99.90
983;DHT22;480;48.124;11.578;2023-05-07T04:19:48;14.40;99.90
983;DHT22;480;48.124;11.578;2023-05-07T04:22:15;14.20;99.90
983;DHT22;480;48.124;11.578;2023-05-07T04:24:42;14.20;99.90
983;DHT22;480;48.124;11.578;2023-05-07T04:27:09;14.30;99.90
983;DHT22;480;48.124;11.578;2023-05-07T04:29:36;14.40;99.90
983;DHT22;480;48.124;11.578;2023-05-07T04:32:09;14.50;99.90
983;DHT22;480;48.124;11.578;2023-05-07T04:34:35;14.50;99.90
983;DHT22;480;48.124;11.578;2023-05-07T04:37:02;14.40;99.90
983;DHT22;480;48.124;11.578;2023-05-07T04:39:29;14.40;99.90
983;DHT22;480;48.124;11.578;2023-05-07T04:41:56;14.40;99.90
983;DHT22;480;48.124;11.578;2023-05-07T04:44:23;14.50;99.90
983;DHT22;480;48.124;11.578;2023-05-07T04:46:50;14.50;99.90
983;DHT22;480;48.124;11.578;2023-05-07T04:49:19;14.60;99.90
983;DHT22;480;48.124;11.578;2023-05-07T04:51:46;14.50;99.90
983;DHT22;480;48.124;11.578;2023-05-07T04:54:12;14.60;99.90
983;DHT22;480;48.124;11.578;2023-05-07T04:56:39;14.70;99.90
983;DHT22;480;48.124;11.578;2023-05-07T04:59:07;14.60;99.90
983;DHT22;480;48.124;11.578;2023-05-07T05:01:34;14.70;99.90
983;DHT22;480;48.124;11.578;2023-05-07T05:04:01;14.60;99.90
983;DHT22;480;48.124;11.578;2023-05-07T05:06:29;14.60;99.90
983;DHT22;480;48.124;11.578;2023-05-07T05:08:56;14.60;99.90
983;DHT22;480;48.124;11.578;2023-05-07T05:11:23;14.50;99.90
983;DHT22;480;48.124;11.578;2023-05-07T05:13:50;14.60;99.90
983;DHT22;480;48.124;11.578;2023-05-07T05:16:17;14.70;99.90
983;DHT22;480;48.124;11.578;2023-05-07T05:18:44;14.70;99.90
983;DHT22;480;48.124;11.578;2023-05-07T05:21:11;14.80;99.90
983;DHT22;480;48.124;11.578;2023-05-07T05:23:39;14.80;99.90
983;DHT22;480;48.124;11.578;2023-05-07T05:26:06;14.90;99.90
983;DHT22;480;48.124;11.578;2023-05-07T05:28:33;15.00;99.90
983;DHT22;480;48.124;11.578;2023-05-07T05:31:00;15.10;99.90
983;DHT22;480;48.124;11.578;2023-05-07T05:33:27;15.10;99.90
983;DHT22;480;48.124;11.578;2023-05-07T05:35:54;15.20;99.90
983;DHT22;480;48.124;11.578;2023-05-07T05:38:21;15.20;99.90
983;DHT22;480;48.124;11.578;2023-05-07T05:40:49;15.30;99.90
983;DHT22;480;48.124;11.578;2023-05-07T05:43:16;15.40;99.90
983;DHT22;480;48.124;11.578;2023-05-07T05:45:43;15.30;99.90
983;DHT22;480;48.124;11.578;2023-05-07T05:48:10;15.00;99.90
983;DHT22;480;48.124;11.578;2023-05-07T05:50:37;15.20;99.90
983;DHT22;480;48.124;11.578;2023-05-07T05:53:04;15.30;99.90
983;DHT22;480;48.124;11.578;2023-05-07T05:55:31;15.30;99.90
983;DHT22;480;48.124;11.578;2023-05-07T05:58:00;15.20;99.90
983;DHT22;480;48.124;11.578;2023-05-07T06:00:28;15.30;99.90
983;DHT22;480;48.124;11.578;2023-05-07T06:02:55;15.30;99.90
983;DHT22;480;48.124;11.578;2023-05-07T06:05:22;15.40;99.90
983;DHT22;480;48.124;11.578;2023-05-07T06:07:49;15.60;99.90
983;DHT22;480;48.124;11.578;2023-05-07T06:10:16;15.80;99.90
983;DHT22;480;48.124;11.578;2023-05-07T06:12:43;15.40;99.90
983;DHT22;480;48.124;11.578;2023-05-07T06:15:11;15.50;99.90
983;DHT22;480;48.124;11.578;2023-05-07T06:17:38;15.20;99.90
983;DHT22;480;48.124;11.578;2023-05-07T06:20:07;15.20;99.90
983;DHT22;480;48.124;11.578;2023-05-07T06:22:34;15.30;99.90
983;DHT22;480;48.124;11.578;2023-05-07T06:25:01;15.40;99.90
983;DHT22;480;48.124;11.578;2023-05-07T06:27:28;15.50;99.90
983;DHT22;480;48.124;11.578;2023-05-07T06:29:55;15.80;99.90
983;DHT22;480;48.124;11.578;2023-05-07T06:32:23;15.90;99.90
983;DHT22;480;48.124;11.578;2023-05-07T06:34:50;16.10;99.90
983;DHT22;480;48.124;11.578;2023-05-07T06:37:17;16.20;99.90
983;DHT22;480;48.124;11.578;2023-05-07T06:39:44;16.40;99.90
983;DHT22;480;48.124;11.578;2023-05-07T06:42:11;16.30;99.90
983;DHT22;480;48.124;11.578;2023-05-07T06:44:38;16.40;99.90
983;DHT22;480;48.124;11.578;2023-05-07T06:47:05;16.50;99.90
983;DHT22;480;48.124;11.578;2023-05-07T06:49:34;16.70;99.90
983;DHT22;480;48.124;11.578;2023-05-07T06:52:00;16.80;99.90
983;DHT22;480;48.124;11.578;2023-05-07T06:54:28;17.00;99.90
983;DHT22;480;48.124;11.578;2023-05-07T06:56:55;17.20;99.90
983;DHT22;480;48.124;11.578;2023-05-07T06:59:23;17.20;99.90
983;DHT22;480;48.124;11.578;2023-05-07T07:01:50;17.10;99.90
983;DHT22;480;48.124;11.578;2023-05-07T07:04:17;17.10;99.90
983;DHT22;480;48.124;11.578;2023-05-07T07:06:45;17.20;99.90
983;DHT22;480;48.124;11.578;2023-05-07T07:09:12;17.30;99.90
983;DHT22;480;48.124;11.578;2023-05-07T07:11:39;17.40;99.90
983;DHT22;480;48.124;11.578;2023-05-07T07:14:06;17.50;99.90
983;DHT22;480;48.124;11.578;2023-05-07T07:16:33;17.60;99.90
983;DHT22;480;48.124;11.578;2023-05-07T07:19:00;17.70;99.90
983;DHT22;480;48.124;11.578;2023-05-07T07:21:27;17.80;99.90
983;DHT22;480;48.124;11.578;2023-05-07T07:23:55;17.70;99.90
983;DHT22;480;48.124;11.578;2023-05-07T07:26:22;17.60;99.90
983;DHT22;480;48.124;11.578;2023-05-07T07:28:49;17.70;99.90
983;DHT22;480;48.124;11.578;2023-05-07T07:31:16;17.80;99.90
983;DHT22;480;48.124;11.578;2023-05-07T07:33:43;17.90;99.90
983;DHT22;480;48.124;11.578;2023-05-07T07:36:11;18.10;99.90
983;DHT22;480;48.124;11.578;2023-05-07T07:38:37;18.10;99.90
983;DHT22;480;48.124;11.578;2023-05-07T07:41:08;18.10;99.90
983;DHT22;480;48.124;11.578;2023-05-07T07:43:35;17.90;99.90
983;DHT22;480;48.124;11.578;2023-05-07T07:46:02;18.00;99.90
983;DHT22;480;48.124;11.578;2023-05-07T07:48:30;18.00;99.90
983;DHT22;480;48.124;11.578;2023-05-07T07:50:57;18.30;99.90
983;DHT22;480;48.124;11.578;2023-05-07T07:53:24;18.20;99.90
983;DHT22;480;48.124;11.578;2023-05-07T07:55:51;18.20;99.90
983;DHT22;480;48.124;11.578;2023-05-07T07:58:19;18.30;99.90
983;DHT22;480;48.124;11.578;2023-05-07T08:00:47;18.30;99.90
983;DHT22;480;48.124;11.578;2023-05-07T08:03:14;18.40;99.90
983;DHT22;480;48.124;11.578;2023-05-07T08:05:42;18.60;99.90
983;DHT22;480;48.124;11.578;2023-05-07T08:08:09;18.90;99.90
983;DHT22;480;48.124;11.578;2023-05-07T08:10:36;18.90;99.90
983;DHT22;480;48.124;11.578;2023-05-07T08:13:05;19.20;99.90
983;DHT22;480;48.124;11.578;2023-05-07T08:15:33;19.30;99.90
983;DHT22;480;48.124;11.578;2023-05-07T08:18:01;19.40;99.90
983;DHT22;480;48.124;11.578;2023-05-07T08:20:28;19.20;99.90
983;DHT22;480;48.124;11.578;2023-05-07T08:22:55;19.30;99.90
983;DHT22;480;48.124;11.578;2023-05-07T08:25:22;19.50;99.90
983;DHT22;480;48.124;11.578;2023-05-07T08:27:49;19.40;99.90
983;DHT22;480;48.124;11.578;2023-05-07T08:30:16;19.20;99.90
983;DHT22;480;48.124;11.578;2023-05-07T08:32:45;19.20;99.90
983;DHT22;480;48.124;11.578;2023-05-07T08:35:12;19.30;99.90
983;DHT22;480;48.124;11.578;2023-05-07T08:37:39;19.60;99.90
983;DHT22;480;48.124;11.578;2023-05-07T08:40:07;19.70;99.90
983;DHT22;480;48.124;11.578;2023-05-07T08:42:36;19.70;99.90
983;DHT22;480;48.124;11.578;2023-05-07T08:45:04;19.40;99.90
983;DHT22;480;48.124;11.578;2023-05-07T08:47:42;19.40;99.90
983;DHT22;480;48.124;11.578;2023-05-07T08:50:12;19.40;99.90
983;DHT22;480;48.124;11.578;2023-05-07T08:52:39;19.60;99.90
983;DHT22;480;48.124;11.578;2023-05-07T08:55:11;19.70;99.90
983;DHT22;480;48.124;11.578;2023-05-07T08:57:39;20.00;99.90
983;DHT22;480;48.124;11.578;2023-05-07T09:00:08;19.90;99.90
983;DHT22;480;48.124;11.578;2023-05-07T09:02:35;19.90;99.90
983;DHT22;480;48.124;11.578;2023-05-07T09:05:04;19.80;99.90
983;DHT22;480;48.124;11.578;2023-05-07T09:07:33;19.80;99.90
983;DHT22;480;48.124;11.578;2023-05-07T09:10:02;19.90;99.90
983;DHT22;480;48.124;11.578;2023-05-07T09:12:29;19.90;99.90
983;DHT22;480;48.124;11.578;2023-05-07T09:14:57;20.00;99.90
983;DHT22;480;48.124;11.578;2023-05-07T09:17:23;19.90;99.90
983;DHT22;480;48.124;11.578;2023-05-07T09:19:50;20.10;99.90
983;DHT22;480;48.124;11.578;2023-05-07T09:22:19;20.20;99.90
983;DHT22;480;48.124;11.578;2023-05-07T09:24:49;20.20;99.90
983;DHT22;480;48.124;11.578;2023-05-07T09:27:17;20.20;99.90
983;DHT22;480;48.124;11.578;2023-05-07T09:29:44;20.20;99.90
983;DHT22;480;48.124;11.578;2023-05-07T09:32:12;20.40;99.90
983;DHT22;480;48.124;11.578;2023-05-07T09:34:38;20.70;99.90
983;DHT22;480;48.124;11.578;2023-05-07T09:37:06;20.60;99.90
983;DHT22;480;48.124;11.578;2023-05-07T09:39:40;20.90;99.90
983;DHT22;480;48.124;11.578;2023-05-07T09:42:09;20.80;99.90
983;DHT22;480;48.124;11.578;2023-05-07T09:44:37;21.00;99.90
983;DHT22;480;48.124;11.578;2023-05-07T09:47:05;21.10;99.90
983;DHT22;480;48.124;11.578;2023-05-07T09:49:35;21.40;99.90
983;DHT22;480;48.124;11.578;2023-05-07T09:52:03;21.50;99.90
983;DHT22;480;48.124;11.578;2023-05-07T09:54:32;21.50;99.90
983;DHT22;480;48.124;11.578;2023-05-07T09:57:01;21.70;99.90
983;DHT22;480;48.124;11.578;2023-05-07T09:59:31;21.60;99.90
983;DHT22;480;48.124;11.578;2023-05-07T10:02:00;21.40;99.90
983;DHT22;480;48.124;11.578;2023-05-07T10:04:27;21.20;99.90
983;DHT22;480;48.124;11.578;2023-05-07T10:06:54;21.20;99.90
983;DHT22;480;48.124;11.578;2023-05-07T10:09:23;21.30;99.90
983;DHT22;480;48.124;11.578;2023-05-07T10:11:51;21.50;99.90
983;DHT22;480;48.124;11.578;2023-05-07T10:14:19;21.60;99.90
983;DHT22;480;48.124;11.578;2023-05-07T10:16:49;21.70;99.90
983;DHT22;480;48.124;11.578;2023-05-07T10:19:16;21.80;99.90
983;DHT22;480;48.124;11.578;2023-05-07T10:21:47;21.90;99.90
983;DHT22;480;48.124;11.578;2023-05-07T10:24:19;21.70;99.90
983;DHT22;480;48.124;11.578;2023-05-07T10:26:50;21.90;99.90
983;DHT22;480;48.124;11.578;2023-05-07T10:29:29;21.90;99.90
983;DHT22;480;48.124;11.578;2023-05-07T10:32:14;21.70;99.90
983;DHT22;480;48.124;11.578;2023-05-07T10:34:49;21.70;99.90
983;DHT22;480;48.124;11.578;2023-05-07T10:37:18;21.50;99.90
983;DHT22;480;48.124;11.578;2023-05-07T10:39:45;21.30;99.90
983;DHT22;480;48.124;11.578;2023-05-07T10:42:13;21.50;99.90
983;DHT22;480;48.124;11.578;2023-05-07T10:44:40;21.50;99.90
983;DHT22;480;48.124;11.578;2023-05-07T10:47:10;21.80;99.90
983;DHT22;480;48.124;11.578;2023-05-07T10:52:43;22.40;99.90
983;DHT22;480;48.124;11.578;2023-05-07T10:55:20;22.50;99.90
983;DHT22;480;48.124;11.578;2023-05-07T10:57:50;22.60;99.90
983;DHT22;480;48.124;11.578;2023-05-07T11:00:42;22.30;99.90
983;DHT22;480;48.124;11.578;2023-05-07T11:03:11;21.90;99.90
983;DHT22;480;48.124;11.578;2023-05-07T11:05:40;22.20;99.90
983;DHT22;480;48.124;11.578;2023-05-07T11:08:09;22.10;99.90
983;DHT22;480;48.124;11.578;2023-05-07T11:10:49;22.20;99.90
983;DHT22;480;48.124;11.578;2023-05-07T11:13:17;22.40;99.90
983;DHT22;480;48.124;11.578;2023-05-07T11:15:45;22.70;99.90
983;DHT22;480;48.124;11.578;2023-05-07T11:18:16;23.00;99.90
983;DHT22;480;48.124;11.578;2023-05-07T11:20:52;23.20;99.90
983;DHT22;480;48.124;11.578;2023-05-07T11:26:46;23.40;99.90
983;DHT22;480;48.124;11.578;2023-05-07T11:29:14;23.40;99.90
983;DHT22;480;48.124;11.578;2023-05-07T11:31:42;23.40;99.90
983;DHT22;480;48.124;11.578;2023-05-07T11:34:11;23.60;99.90
983;DHT22;480;48.124;11.578;2023-05-07T11:36:42;24.00;99.90
983;DHT22;480;48.124;11.578;2023-05-07T11:39:30;23.60;99.90
983;DHT22;480;48.124;11.578;2023-05-07T11:41:59;23.60;99.90
983;DHT22;480;48.124;11.578;2023-05-07T11:44:42;23.40;99.90
983;DHT22;480;48.124;11.578;2023-05-07T11:47:11;23.60;99.90
983;DHT22;480;48.124;11.578;2023-05-07T11:49:39;23.50;99.90
983;DHT22;480;48.124;11.578;2023-05-07T11:52:07;23.80;99.90
983;DHT22;480;48.124;11.578;2023-05-07T11:54:37;23.50;99.90
983;DHT22;480;48.124;11.578;2023-05-07T11:57:04;23.10;99.90
983;DHT22;480;48.124;11.578;2023-05-07T11:59:38;23.10;99.90
983;DHT22;480;48.124;11.578;2023-05-07T12:02:07;23.10;99.90
983;DHT22;480;48.124;11.578;2023-05-07T12:04:34;23.40;99.90
983;DHT22;480;48.124;11.578;2023-05-07T12:07:02;23.80;99.90
983;DHT22;480;48.124;11.578;2023-05-07T12:09:32;23.80;99.90
983;DHT22;480;48.124;11.578;2023-05-07T12:12:03;23.70;99.90
983;DHT22;480;48.124;11.578;2023-05-07T12:14:30;23.90;99.90
983;DHT22;480;48.124;11.578;2023-05-07T12:16:59;23.80;99.90
983;DHT22;480;48.124;11.578;2023-05-07T12:19:28;23.40;99.90
983;DHT22;480;48.124;11.578;2023-05-07T12:21:56;23.50;99.90
983;DHT22;480;48.124;11.578;2023-05-07T12:24:25;23.50;99.90
983;DHT22;480;48.124;11.578;2023-05-07T12:26:52;23.40;99.90
983;DHT22;480;48.124;11.578;2023-05-07T12:29:21;23.10;99.90
983;DHT22;480;48.124;11.578;2023-05-07T12:31:49;23.20;99.90
983;DHT22;480;48.124;11.578;2023-05-07T12:34:16;23.50;99.90
983;DHT22;480;48.124;11.578;2023-05-07T12:36:43;23.60;99.90
983;DHT22;480;48.124;11.578;2023-05-07T12:39:10;24.00;99.90
983;DHT22;480;48.124;11.578;2023-05-07T12:44:35;23.70;99.90
983;DHT22;480;48.124;11.578;2023-05-07T12:47:02;23.80;99.90
983;DHT22;480;48.124;11.578;2023-05-07T12:49:29;23.60;99.90
983;DHT22;480;48.124;11.578;2023-05-07T12:51:56;23.40;99.90
983;DHT22;480;48.124;11.578;2023-05-07T12:54:29;22.80;99.90
983;DHT22;480;48.124;11.578;2023-05-07T12:57:03;22.90;99.90
983;DHT22;480;48.124;11.578;2023-05-07T12:59:33;23.10;99.90
983;DHT22;480;48.124;11.578;2023-05-07T13:02:00;23.20;99.90
983;DHT22;480;48.124;11.578;2023-05-07T13:04:28;23.50;99.90
983;DHT22;480;48.124;11.578;2023-05-07T13:06:55;23.30;99.90
983;DHT22;480;48.124;11.578;2023-05-07T13:09:22;23.40;99.90
983;DHT22;480;48.124;11.578;2023-05-07T13:11:49;23.50;99.90
983;DHT22;480;48.124;11.578;2023-05-07T13:14:16;23.70;99.90
983;DHT22;480;48.124;11.578;2023-05-07T13:16:44;23.60;99.90
983;DHT22;480;48.124;11.578;2023-05-07T13:19:12;23.70;99.90
983;DHT22;480;48.124;11.578;2023-05-07T13:21:39;23.70;99.90
983;DHT22;480;48.124;11.578;2023-05-07T13:24:07;23.60;99.90
983;DHT22;480;48.124;11.578;2023-05-07T13:26:34;23.80;99.90
983;DHT22;480;48.124;11.578;2023-05-07T13:29:01;23.70;99.90
983;DHT22;480;48.124;11.578;2023-05-07T13:31:28;23.90;99.90
983;DHT22;480;48.124;11.578;2023-05-07T13:33:56;23.40;99.90
983;DHT22;480;48.124;11.578;2023-05-07T13:36:23;23.30;99.90
983;DHT22;480;48.124;11.578;2023-05-07T13:38:51;23.80;99.90
983;DHT22;480;48.124;11.578;2023-05-07T13:41:18;24.00;99.90
983;DHT22;480;48.124;11.578;2023-05-07T13:43:45;24.00;99.90
983;DHT22;480;48.124;11.578;2023-05-07T13:46:12;24.20;99.90
983;DHT22;480;48.124;11.578;2023-05-07T13:48:39;24.40;99.90
983;DHT22;480;48.124;11.578;2023-05-07T13:51:08;24.60;99.90
983;DHT22;480;48.124;11.578;2023-05-07T13:53:35;24.50;99.90
983;DHT22;480;48.124;11.578;2023-05-07T13:56:02;24.50;99.90
983;DHT22;480;48.124;11.578;2023-05-07T13:58:30;24.70;99.90
983;DHT22;480;48.124;11.578;2023-05-07T14:00:57;24.40;99.90
983;DHT22;480;48.124;11.578;2023-05-07T14:03:24;24.80;99.90
983;DHT22;480;48.124;11.578;2023-05-07T14:05:51;24.90;99.90
983;DHT22;480;48.124;11.578;2023-05-07T14:08:19;25.00;99.90
983;DHT22;480;48.124;11.578;2023-05-07T14:10:46;24.90;99.90
983;DHT22;480;48.124;11.578;2023-05-07T14:13:13;25.00;99.90
983;DHT22;480;48.124;11.578;2023-05-07T14:15:40;24.30;99.90
983;DHT22;480;48.124;11.578;2023-05-07T14:18:11;24.20;99.90
983;DHT22;480;48.124;11.578;2023-05-07T14:20:39;24.40;99.90
983;DHT22;480;48.124;11.578;2023-05-07T14:23:05;24.40;99.90
983;DHT22;480;48.124;11.578;2023-05-07T14:25:34;24.20;99.90
983;DHT22;480;48.124;11.578;2023-05-07T14:28:01;24.00;99.90
983;DHT22;480;48.124;11.578;2023-05-07T14:30:28;23.60;99.90
983;DHT22;480;48.124;11.578;2023-05-07T14:32:55;23.50;99.90
983;DHT22;480;48.124;11.578;2023-05-07T14:35:22;23.40;99.90
983;DHT22;480;48.124;11.578;2023-05-07T14:37:49;23.30;99.90
983;DHT22;480;48.124;11.578;2023-05-07T14:40:16;23.30;99.90
983;DHT22;480;48.124;11.578;2023-05-07T14:42:44;23.40;99.90
983;DHT22;480;48.124;11.578;2023-05-07T14:45:11;23.30;99.90
983;DHT22;480;48.124;11.578;2023-05-07T14:47:38;23.00;99.90
983;DHT22;480;48.124;11.578;2023-05-07T14:50:05;22.80;99.90
983;DHT22;480;48.124;11.578;2023-05-07T14:52:32;23.20;99.90
983;DHT22;480;48.124;11.578;2023-05-07T14:54:59;23.40;99.90
983;DHT22;480;48.124;11.578;2023-05-07T14:57:26;23.40;99.90
983;DHT22;480;48.124;11.578;2023-05-07T14:59:55;23.50;99.90
983;DHT22;480;48.124;11.578;2023-05-07T15:02:22;23.30;99.90
983;DHT22;480;48.124;11.578;2023-05-07T15:04:49;23.10;99.90
983;DHT22;480;48.124;11.578;2023-05-07T15:07:16;23.10;99.90
983;DHT22;480;48.124;11.578;2023-05-07T15:09:43;22.70;99.90
983;DHT22;480;48.124;11.578;2023-05-07T15:12:11;22.70;99.90
983;DHT22;480;48.124;11.578;2023-05-07T15:14:38;22.50;99.90
983;DHT22;480;48.124;11.578;2023-05-07T15:17:06;22.50;99.90
983;DHT22;480;48.124;11.578;2023-05-07T15:19:34;22.60;99.90
983;DHT22;480;48.124;11.578;2023-05-07T15:22:01;22.40;99.90
983;DHT22;480;48.124;11.578;2023-05-07T15:24:28;22.30;99.90
983;DHT22;480;48.124;11.578;2023-05-07T15:26:55;22.20;99.90
983;DHT22;480;48.124;11.578;2023-05-07T15:29:23;22.40;99.90
983;DHT22;480;48.124;11.578;2023-05-07T15:31:50;22.40;99.90
983;DHT22;480;48.124;11.578;2023-05-07T15:34:20;22.20;99.90
983;DHT22;480;48.124;11.578;2023-05-07T15:36:47;21.90;99.90
983;DHT22;480;48.124;11.578;2023-05-07T15:39:15;21.80;99.90
983;DHT22;480;48.124;11.578;2023-05-07T15:41:42;21.80;99.90
983;DHT22;480;48.124;11.578;2023-05-07T15:44:09;21.70;99.90
983;DHT22;480;48.124;11.578;2023-05-07T15:46:36;21.70;99.90
983;DHT22;480;48.124;11.578;2023-05-07T15:49:03;21.50;99.90
983;DHT22;480;48.124;11.578;2023-05-07T15:51:34;21.40;99.90
983;DHT22;480;48.124;11.578;2023-05-07T15:54:02;21.50;99.90
983;DHT22;480;48.124;11.578;2023-05-07T15:56:29;21.50;99.90
983;DHT22;480;48.124;11.578;2023-05-07T15:58:58;21.50;99.90
983;DHT22;480;48.124;11.578;2023-05-07T16:01:25;21.30;99.90
983;DHT22;480;48.124;11.578;2023-05-07T16:03:52;20.90;99.90
983;DHT22;480;48.124;11.578;2023-05-07T16:06:19;20.90;99.90
983;DHT22;480;48.124;11.578;2023-05-07T16:08:48;21.10;99.90
983;DHT22;480;48.124;11.578;2023-05-07T16:11:15;21.10;99.90
983;DHT22;480;48.124;11.578;2023-05-07T16:13:42;21.10;99.90
983;DHT22;480;48.124;11.578;2023-05-07T16:16:09;21.10;99.90
983;DHT22;480;48.124;11.578;2023-05-07T16:18:36;21.20;99.90
983;DHT22;480;48.124;11.578;2023-05-07T16:21:04;21.20;99.90
983;DHT22;480;48.124;11.578;2023-05-07T16:23:31;21.00;99.90
983;DHT22;480;48.124;11.578;2023-05-07T16:25:59;21.00;99.90
983;DHT22;480;48.124;11.578;2023-05-07T16:28:26;21.00;99.90
983;DHT22;480;48.124;11.578;2023-05-07T16:30:53;20.80;99.90